X  Close Metar Aviation Weather Data     EIDW Dublin Airport
Temperature
13°C Temperature
11°C Dewpoint
88% Humidity



Wind
14 KM/H
9 MPH
4 M/S
8 KTS



200°
SSW
Current Conditions

Partly Cloudy Partly Cloudy
Pressure 1010.92 (hPa) - 29.85 (inHg)
Visibility 6.2 (mile) - 10 (km)
Airport
Airport-code EIDW

Location: Dublin Airport
Distance: 17 (km)

Metar:
EIDW 220330Z 20008KT 160V240 9999 FEW012 BKN020 13/11 Q1011 NOSIG

Time: 22-05-2022 04:30 IST